Klamath Falls, OR

9:32 PM PDT on August 28, 2016 (GMT -0700)
Klamath Falls City Schools | | Change Station
Active Advisory: Fire Weather Warning

Elev 4104 ft 42.22 °N, 121.75 °W | Updated 35 seconds ago

Clear
Clear
66.0 °F
Feels Like 66.0 °F
N
0.0
Wind Variable Wind from NNE
Gusts 0.0 mph

Today
High -- | Low -- °F
--% Chance of Precip.
Yesterday
High -- | Low -- °F
Precip. -- in
Pressure 30.02 in
Visibility 10.0 miles
Clouds Clear
Dew Point 35 °F
Humidity 32%
Rainfall 0.00 in
Snow Depth Not available.
6:28 AM 7:46 PM
Waning Crescent, 11% visible
METAR KLMT 290353Z 18010KT 10SM CLR 21/M02 A3013 RMK AO2 SLP165 T02111017
Pressure 30.02 in
Visibility 10.0 miles
Clouds Clear
Dew Point 35 °F
Humidity 32%
Rainfall 0.00 in
Snow Depth Not available.
6:28 AM 7:46 PM
Waning Crescent, 11% visible
METAR KLMT 290353Z 18010KT 10SM CLR 21/M02 A3013 RMK AO2 SLP165 T02111017

10-Day Weather Forecast

Almanac

Astronomy

Aug. 28, 2016 Rise Set
Actual Time
Civil Twilight
Nautical Twilight
Astronomical Twilight
Moon
Length of Visible Light
Length of Day
Tomorrow will be .
, % of the Moon is Illuminated

Today's Extremes

State Highs State Lows

Community

WunderPhotos

Upload Photos

1,935,793 photos uploaded!

WunderBlog® & News

Nearby

Air Quality

  Air Quality AQ Index Pollutant
Not available.

Snow Depth

Station Depth Elevation

Earthquake Activity

City Distance Mag. Time & Date
Minimum magnitude displayed is 2.5.

Coastal Water Temperatures

Place Temperature

Stations

Nearby Weather Stations

Station Location Temp. Windchill Dew Point Humidity Wind Precip. Elev Updated Type
                   

Watches & Warnings

Fire Weather Warning
Issued: 2:50 PM PDT Aug. 28, 2016 – National Weather Service

... Red flag warning in effect from noon to 9 PM PDT Monday for
   combination of strong winds and low relative humidities for
   fire weather zones 285... 624 and 625...

The National Weather Service in Medford has issued a red flag
warning... which is in effect from noon to 9 PM PDT Monday. The
Fire Weather Watch is no longer in effect.

* Affected area: in northern CA fire zone... .285. In south
central or fire zones... 624... 625.

* Counties affected: in northern CA... Modoc. In south central
or... Klamath... lake.

* Wind: southwest 10 to 15 mph with gusts up to 25 mph.

* Humidity: as low as 5-10 percent.

Precautionary/preparedness actions...

Strong winds and low relative humidities will cause fires to
spread very rapidly.



Visit US at www.Weather.Gov/Medford